sensor_id;sensor_type;location;lat;lon;timestamp;pressure;altitude;pressure_sealevel;temperature;humidity
48874;BME280;66155;46.204;5.220;2023-04-25T00:00:43;98357.78;;;12.41;55.39
48874;BME280;66155;46.204;5.220;2023-04-25T00:05:44;98352.78;;;12.50;56.40
48874;BME280;66155;46.204;5.220;2023-04-25T00:10:45;98345.50;;;12.42;55.91
48874;BME280;66155;46.204;5.220;2023-04-25T00:15:45;98344.72;;;12.36;56.97
48874;BME280;66155;46.204;5.220;2023-04-25T00:20:46;98338.22;;;12.39;57.13
48874;BME280;66155;46.204;5.220;2023-04-25T00:25:49;98341.03;;;12.52;56.40
48874;BME280;66155;46.204;5.220;2023-04-25T00:30:49;98322.94;;;12.66;55.66
48874;BME280;66155;46.204;5.220;2023-04-25T00:35:50;98312.72;;;12.70;55.62
48874;BME280;66155;46.204;5.220;2023-04-25T00:40:50;98311.97;;;12.64;56.11
48874;BME280;66155;46.204;5.220;2023-04-25T00:45:52;98313.69;;;12.84;55.43
48874;BME280;66155;46.204;5.220;2023-04-25T00:50:54;98320.03;;;12.73;56.56
48874;BME280;66155;46.204;5.220;2023-04-25T00:55:56;98324.31;;;12.48;57.73
48874;BME280;66155;46.204;5.220;2023-04-25T01:00:57;98337.16;;;12.34;58.96
48874;BME280;66155;46.204;5.220;2023-04-25T01:05:57;98339.31;;;12.17;59.95
48874;BME280;66155;46.204;5.220;2023-04-25T01:10:58;98344.03;;;12.00;61.21
48874;BME280;66155;46.204;5.220;2023-04-25T01:15:59;98354.22;;;11.75;61.79
48874;BME280;66155;46.204;5.220;2023-04-25T01:21:10;98352.66;;;11.64;64.52
48874;BME280;66155;46.204;5.220;2023-04-25T01:26:11;98340.91;;;11.67;62.28
48874;BME280;66155;46.204;5.220;2023-04-25T01:31:12;98332.28;;;11.61;62.82
48874;BME280;66155;46.204;5.220;2023-04-25T01:36:14;98332.28;;;11.61;62.72
48874;BME280;66155;46.204;5.220;2023-04-25T01:41:15;98324.47;;;11.66;62.46
48874;BME280;66155;46.204;5.220;2023-04-25T01:46:17;98321.59;;;11.83;62.25
48874;BME280;66155;46.204;5.220;2023-04-25T01:51:17;98322.38;;;11.73;63.50
48874;BME280;66155;46.204;5.220;2023-04-25T01:56:18;98313.47;;;11.90;62.52
48874;BME280;66155;46.204;5.220;2023-04-25T02:01:19;98311.38;;;12.12;61.82
48874;BME280;66155;46.204;5.220;2023-04-25T02:06:19;98309.00;;;12.26;62.20
48874;BME280;66155;46.204;5.220;2023-04-25T02:11:20;98311.31;;;12.33;62.38
48874;BME280;66155;46.204;5.220;2023-04-25T02:16:21;98309.47;;;12.44;61.60
48874;BME280;66155;46.204;5.220;2023-04-25T02:21:21;98307.59;;;12.54;61.75
48874;BME280;66155;46.204;5.220;2023-04-25T02:26:22;98305.47;;;12.57;61.97
48874;BME280;66155;46.204;5.220;2023-04-25T02:31:23;98302.66;;;12.43;62.70
48874;BME280;66155;46.204;5.220;2023-04-25T02:36:24;98313.09;;;12.43;62.75
48874;BME280;66155;46.204;5.220;2023-04-25T02:41:26;98320.19;;;12.37;62.66
48874;BME280;66155;46.204;5.220;2023-04-25T02:46:27;98323.34;;;12.24;62.55
48874;BME280;66155;46.204;5.220;2023-04-25T02:51:28;98319.47;;;12.16;62.85
48874;BME280;66155;46.204;5.220;2023-04-25T02:56:28;98329.91;;;12.11;63.25
48874;BME280;66155;46.204;5.220;2023-04-25T03:01:28;98317.44;;;11.97;63.43
48874;BME280;66155;46.204;5.220;2023-04-25T03:06:29;98328.38;;;11.84;64.46
48874;BME280;66155;46.204;5.220;2023-04-25T03:11:31;98321.31;;;11.79;63.97
48874;BME280;66155;46.204;5.220;2023-04-25T03:16:31;98331.22;;;11.88;63.83
48874;BME280;66155;46.204;5.220;2023-04-25T03:21:33;98325.25;;;11.82;63.70
48874;BME280;66155;46.204;5.220;2023-04-25T03:26:34;98317.13;;;11.99;63.03
48874;BME280;66155;46.204;5.220;2023-04-25T03:31:34;98312.16;;;12.03;63.65
48874;BME280;66155;46.204;5.220;2023-04-25T03:36:35;98309.59;;;11.97;63.74
48874;BME280;66155;46.204;5.220;2023-04-25T03:41:35;98311.13;;;12.04;63.50
48874;BME280;66155;46.204;5.220;2023-04-25T03:46:35;98315.84;;;11.86;63.80
48874;BME280;66155;46.204;5.220;2023-04-25T03:51:36;98325.25;;;11.61;63.06
48874;BME280;66155;46.204;5.220;2023-04-25T03:56:36;98326.81;;;11.57;62.93
48874;BME280;66155;46.204;5.220;2023-04-25T04:01:37;98319.25;;;11.46;63.19
48874;BME280;66155;46.204;5.220;2023-04-25T04:06:37;98332.56;;;11.39;62.88
48874;BME280;66155;46.204;5.220;2023-04-25T04:11:38;98323.41;;;11.31;63.67
48874;BME280;66155;46.204;5.220;2023-04-25T04:16:39;98323.94;;;11.28;63.29
48874;BME280;66155;46.204;5.220;2023-04-25T04:21:40;98336.19;;;11.28;63.55
48874;BME280;66155;46.204;5.220;2023-04-25T04:26:40;98344.78;;;11.18;64.27
48874;BME280;66155;46.204;5.220;2023-04-25T04:31:40;98346.09;;;11.26;64.29
48874;BME280;66155;46.204;5.220;2023-04-25T04:36:41;98340.63;;;11.22;64.27
48874;BME280;66155;46.204;5.220;2023-04-25T04:41:41;98346.34;;;11.19;64.01
48874;BME280;66155;46.204;5.220;2023-04-25T04:46:43;98354.97;;;11.25;63.86
48874;BME280;66155;46.204;5.220;2023-04-25T04:51:46;98358.84;;;11.17;63.99
48874;BME280;66155;46.204;5.220;2023-04-25T04:56:47;98342.72;;;11.20;63.39
48874;BME280;66155;46.204;5.220;2023-04-25T05:01:48;98348.97;;;11.24;63.65
48874;BME280;66155;46.204;5.220;2023-04-25T05:06:48;98372.16;;;11.15;63.25
48874;BME280;66155;46.204;5.220;2023-04-25T05:11:49;98377.34;;;11.10;63.54
48874;BME280;66155;46.204;5.220;2023-04-25T05:16:49;98368.00;;;11.14;63.46
48874;BME280;66155;46.204;5.220;2023-04-25T05:21:50;98375.84;;;11.25;63.39
48874;BME280;66155;46.204;5.220;2023-04-25T05:26:51;98394.09;;;11.19;63.40
48874;BME280;66155;46.204;5.220;2023-04-25T05:31:52;98398.78;;;11.28;63.27
48874;BME280;66155;46.204;5.220;2023-04-25T05:36:53;98389.13;;;11.23;63.31
48874;BME280;66155;46.204;5.220;2023-04-25T05:41:53;98401.38;;;11.28;63.14
48874;BME280;66155;46.204;5.220;2023-04-25T05:46:54;98399.56;;;11.33;63.17
48874;BME280;66155;46.204;5.220;2023-04-25T05:51:54;98400.38;;;11.39;62.82
48874;BME280;66155;46.204;5.220;2023-04-25T05:56:56;98406.34;;;11.29;63.44
48874;BME280;66155;46.204;5.220;2023-04-25T06:01:57;98413.66;;;11.32;62.93
48874;BME280;66155;46.204;5.220;2023-04-25T06:06:57;98414.94;;;11.30;63.21
48874;BME280;66155;46.204;5.220;2023-04-25T06:11:58;98412.34;;;11.19;63.49
48874;BME280;66155;46.204;5.220;2023-04-25T06:16:58;98412.28;;;11.04;63.36
48874;BME280;66155;46.204;5.220;2023-04-25T06:21:59;98416.72;;;11.03;63.82
48874;BME280;66155;46.204;5.220;2023-04-25T06:26:59;98425.03;;;11.00;63.74
48874;BME280;66155;46.204;5.220;2023-04-25T06:32:00;98429.22;;;11.07;63.63
48874;BME280;66155;46.204;5.220;2023-04-25T06:37:00;98438.16;;;11.26;63.32
48874;BME280;66155;46.204;5.220;2023-04-25T06:42:01;98438.44;;;11.35;63.24
48874;BME280;66155;46.204;5.220;2023-04-25T06:47:01;98431.16;;;11.42;62.88
48874;BME280;66155;46.204;5.220;2023-04-25T06:52:02;98428.28;;;11.38;62.70
48874;BME280;66155;46.204;5.220;2023-04-25T06:57:03;98435.38;;;11.53;62.35
48874;BME280;66155;46.204;5.220;2023-04-25T07:02:03;98435.09;;;11.60;61.76
48874;BME280;66155;46.204;5.220;2023-04-25T07:07:04;98444.53;;;11.71;61.54
48874;BME280;66155;46.204;5.220;2023-04-25T07:12:04;98446.09;;;11.77;61.71
48874;BME280;66155;46.204;5.220;2023-04-25T07:17:05;98445.31;;;11.82;61.75
48874;BME280;66155;46.204;5.220;2023-04-25T07:22:06;98452.41;;;12.17;60.32
48874;BME280;66155;46.204;5.220;2023-04-25T07:27:07;98440.84;;;12.60;59.64
48874;BME280;66155;46.204;5.220;2023-04-25T07:32:07;98454.94;;;12.59;58.96
48874;BME280;66155;46.204;5.220;2023-04-25T07:37:08;98449.97;;;12.62;58.36
48874;BME280;66155;46.204;5.220;2023-04-25T07:42:08;98474.06;;;12.33;58.79
48874;BME280;66155;46.204;5.220;2023-04-25T07:47:09;98465.69;;;12.42;57.45
48874;BME280;66155;46.204;5.220;2023-04-25T07:52:10;98492.06;;;12.50;56.59
48874;BME280;66155;46.204;5.220;2023-04-25T07:57:10;98493.09;;;12.65;54.51
48874;BME280;66155;46.204;5.220;2023-04-25T08:02:11;98501.22;;;12.58;54.76
48874;BME280;66155;46.204;5.220;2023-04-25T08:07:11;98477.97;;;12.57;53.44
48874;BME280;66155;46.204;5.220;2023-04-25T08:12:12;98492.56;;;12.63;54.47
48874;BME280;66155;46.204;5.220;2023-04-25T08:17:12;98484.22;;;12.50;54.80
48874;BME280;66155;46.204;5.220;2023-04-25T08:22:13;98498.84;;;12.67;53.46
48874;BME280;66155;46.204;5.220;2023-04-25T08:27:13;98501.16;;;12.84;52.89
48874;BME280;66155;46.204;5.220;2023-04-25T08:32:14;98517.09;;;12.82;52.19
48874;BME280;66155;46.204;5.220;2023-04-25T08:37:14;98511.06;;;13.02;52.13
48874;BME280;66155;46.204;5.220;2023-04-25T08:42:15;98522.50;;;13.22;51.52
48874;BME280;66155;46.204;5.220;2023-04-25T08:47:18;98541.09;;;13.20;51.45
48874;BME280;66155;46.204;5.220;2023-04-25T08:52:24;98538.28;;;12.81;52.18
48874;BME280;66155;46.204;5.220;2023-04-25T08:57:28;98547.72;;;12.71;52.68
48874;BME280;66155;46.204;5.220;2023-04-25T09:02:29;98546.38;;;12.84;52.63
48874;BME280;66155;46.204;5.220;2023-04-25T09:07:30;98540.28;;;13.20;52.30
48874;BME280;66155;46.204;5.220;2023-04-25T09:12:31;98542.63;;;13.26;51.67
48874;BME280;66155;46.204;5.220;2023-04-25T09:17:32;98556.66;;;13.56;51.47
48874;BME280;66155;46.204;5.220;2023-04-25T09:22:32;98546.59;;;13.84;50.39
48874;BME280;66155;46.204;5.220;2023-04-25T09:27:33;98568.59;;;13.83;50.87
48874;BME280;66155;46.204;5.220;2023-04-25T09:32:35;98578.88;;;13.64;50.43
48874;BME280;66155;46.204;5.220;2023-04-25T09:37:35;98563.63;;;13.06;52.51
48874;BME280;66155;46.204;5.220;2023-04-25T09:42:35;98564.06;;;13.23;52.82
48874;BME280;66155;46.204;5.220;2023-04-25T09:47:37;98568.53;;;13.38;52.92
48874;BME280;66155;46.204;5.220;2023-04-25T09:52:38;98557.53;;;13.26;53.78
48874;BME280;66155;46.204;5.220;2023-04-25T09:57:40;98554.06;;;13.51;52.91
48874;BME280;66155;46.204;5.220;2023-04-25T10:02:42;98560.03;;;13.67;52.35
48874;BME280;66155;46.204;5.220;2023-04-25T10:07:45;98555.44;;;13.93;52.21
48874;BME280;66155;46.204;5.220;2023-04-25T10:12:46;98559.94;;;13.82;52.31
48874;BME280;66155;46.204;5.220;2023-04-25T10:17:47;98563.44;;;13.57;52.11
48874;BME280;66155;46.204;5.220;2023-04-25T10:22:50;98566.34;;;13.61;50.13
48874;BME280;66155;46.204;5.220;2023-04-25T10:27:59;98553.47;;;14.14;48.48
48874;BME280;66155;46.204;5.220;2023-04-25T10:33:00;98553.97;;;14.51;49.33
48874;BME280;66155;46.204;5.220;2023-04-25T10:38:04;98561.97;;;14.70;46.38
48874;BME280;66155;46.204;5.220;2023-04-25T10:48:31;98554.19;;;15.13;44.22
48874;BME280;66155;46.204;5.220;2023-04-25T10:53:33;98541.75;;;15.24;44.54
48874;BME280;66155;46.204;5.220;2023-04-25T10:58:34;98542.25;;;15.01;43.14
48874;BME280;66155;46.204;5.220;2023-04-25T11:03:41;98530.22;;;15.44;42.92
48874;BME280;66155;46.204;5.220;2023-04-25T11:08:50;98535.22;;;15.64;43.01
48874;BME280;66155;46.204;5.220;2023-04-25T11:13:50;98532.72;;;15.54;42.79
48874;BME280;66155;46.204;5.220;2023-04-25T11:18:51;98537.78;;;15.26;42.02
48874;BME280;66155;46.204;5.220;2023-04-25T11:23:51;98539.66;;;15.45;40.52
48874;BME280;66155;46.204;5.220;2023-04-25T11:28:57;98555.56;;;15.77;40.83
48874;BME280;66155;46.204;5.220;2023-04-25T11:33:57;98537.81;;;15.88;40.48
48874;BME280;66155;46.204;5.220;2023-04-25T11:38:58;98544.25;;;15.34;40.23
48874;BME280;66155;46.204;5.220;2023-04-25T11:43:58;98536.59;;;15.13;39.52
48874;BME280;66155;46.204;5.220;2023-04-25T11:48:59;98532.59;;;15.21;38.91
48874;BME280;66155;46.204;5.220;2023-04-25T11:53:59;98533.47;;;15.54;39.47
48874;BME280;66155;46.204;5.220;2023-04-25T11:59:02;98530.19;;;16.06;38.36
48874;BME280;66155;46.204;5.220;2023-04-25T12:09:13;98512.75;;;16.76;38.54
48874;BME280;66155;46.204;5.220;2023-04-25T12:14:27;98514.25;;;16.96;35.97
48874;BME280;66155;46.204;5.220;2023-04-25T12:19:33;98514.91;;;16.87;36.29
48874;BME280;66155;46.204;5.220;2023-04-25T12:24:34;98520.66;;;17.17;37.22
48874;BME280;66155;46.204;5.220;2023-04-25T12:29:34;98518.81;;;17.18;36.71
48874;BME280;66155;46.204;5.220;2023-04-25T12:34:35;98516.50;;;17.02;36.32
48874;BME280;66155;46.204;5.220;2023-04-25T12:39:36;98531.41;;;16.60;37.56
48874;BME280;66155;46.204;5.220;2023-04-25T12:44:37;98535.44;;;16.71;37.53
48874;BME280;66155;46.204;5.220;2023-04-25T12:49:38;98528.75;;;17.21;37.04
48874;BME280;66155;46.204;5.220;2023-04-25T12:54:38;98537.44;;;17.07;36.93
48874;BME280;66155;46.204;5.220;2023-04-25T12:59:39;98528.28;;;17.05;37.17
48874;BME280;66155;46.204;5.220;2023-04-25T13:04:39;98538.22;;;17.22;37.28
48874;BME280;66155;46.204;5.220;2023-04-25T13:09:40;98528.94;;;17.24;36.20
48874;BME280;66155;46.204;5.220;2023-04-25T13:14:40;98523.00;;;17.19;35.64
48874;BME280;66155;46.204;5.220;2023-04-25T13:19:40;98535.50;;;17.27;35.04
48874;BME280;66155;46.204;5.220;2023-04-25T13:24:41;98524.78;;;17.74;35.48
48874;BME280;66155;46.204;5.220;2023-04-25T13:29:41;98516.25;;;18.13;34.86
48874;BME280;66155;46.204;5.220;2023-04-25T13:34:41;98505.81;;;18.31;34.87
48874;BME280;66155;46.204;5.220;2023-04-25T13:39:42;98502.75;;;18.37;33.90
48874;BME280;66155;46.204;5.220;2023-04-25T13:44:42;98523.75;;;17.97;34.10
48874;BME280;66155;46.204;5.220;2023-04-25T13:49:43;98508.66;;;17.89;34.75
48874;BME280;66155;46.204;5.220;2023-04-25T13:54:43;98509.44;;;17.76;33.99
48874;BME280;66155;46.204;5.220;2023-04-25T13:59:44;98520.34;;;18.19;33.73
48874;BME280;66155;46.204;5.220;2023-04-25T14:04:44;98516.47;;;18.48;32.61
48874;BME280;66155;46.204;5.220;2023-04-25T14:09:45;98531.38;;;18.21;33.19
48874;BME280;66155;46.204;5.220;2023-04-25T14:14:45;98503.13;;;17.99;34.00
48874;BME280;66155;46.204;5.220;2023-04-25T14:19:46;98518.94;;;18.22;33.22
48874;BME280;66155;46.204;5.220;2023-04-25T14:24:48;98515.91;;;18.29;33.67
48874;BME280;66155;46.204;5.220;2023-04-25T14:29:48;98519.34;;;18.60;32.39
48874;BME280;66155;46.204;5.220;2023-04-25T14:34:48;98499.31;;;18.28;32.89
48874;BME280;66155;46.204;5.220;2023-04-25T14:39:49;98502.72;;;18.29;31.60
48874;BME280;66155;46.204;5.220;2023-04-25T14:44:49;98486.97;;;18.46;31.74
48874;BME280;66155;46.204;5.220;2023-04-25T14:49:51;98485.56;;;18.80;31.79
48874;BME280;66155;46.204;5.220;2023-04-25T14:54:54;98501.97;;;18.68;31.23
48874;BME280;66155;46.204;5.220;2023-04-25T14:59:54;98493.22;;;18.82;31.10
48874;BME280;66155;46.204;5.220;2023-04-25T15:04:55;98496.31;;;18.84;30.76
48874;BME280;66155;46.204;5.220;2023-04-25T15:09:55;98506.66;;;19.20;30.46
48874;BME280;66155;46.204;5.220;2023-04-25T15:14:56;98498.66;;;19.69;28.97
48874;BME280;66155;46.204;5.220;2023-04-25T15:19:57;98484.66;;;21.91;27.49
48874;BME280;66155;46.204;5.220;2023-04-25T15:24:58;98475.38;;;24.42;25.97
48874;BME280;66155;46.204;5.220;2023-04-25T15:29:58;98485.72;;;22.93;26.39
48874;BME280;66155;46.204;5.220;2023-04-25T15:34:58;98492.16;;;22.80;25.80
48874;BME280;66155;46.204;5.220;2023-04-25T15:40:11;98485.25;;;23.28;24.64
48874;BME280;66155;46.204;5.220;2023-04-25T15:45:13;98485.09;;;25.53;22.38
48874;BME280;66155;46.204;5.220;2023-04-25T15:50:14;98484.22;;;28.39;20.12
48874;BME280;66155;46.204;5.220;2023-04-25T15:55:15;98469.84;;;29.17;18.50
48874;BME280;66155;46.204;5.220;2023-04-25T16:00:17;98474.75;;;30.75;17.75
48874;BME280;66155;46.204;5.220;2023-04-25T16:05:18;98467.06;;;30.73;17.86
48874;BME280;66155;46.204;5.220;2023-04-25T16:10:19;98472.72;;;32.93;17.04
48874;BME280;66155;46.204;5.220;2023-04-25T16:15:20;98468.59;;;34.56;16.35
48874;BME280;66155;46.204;5.220;2023-04-25T16:20:21;98478.78;;;32.67;16.01
48874;BME280;66155;46.204;5.220;2023-04-25T16:25:21;98484.78;;;31.84;17.58
48874;BME280;66155;46.204;5.220;2023-04-25T16:30:22;98473.38;;;31.55;17.42
48874;BME280;66155;46.204;5.220;2023-04-25T16:35:22;98479.66;;;32.53;17.13
48874;BME280;66155;46.204;5.220;2023-04-25T16:40:23;98478.19;;;30.75;17.57
48874;BME280;66155;46.204;5.220;2023-04-25T16:45:24;98492.66;;;28.89;19.30
48874;BME280;66155;46.204;5.220;2023-04-25T16:50:25;98494.56;;;29.62;18.15
48874;BME280;66155;46.204;5.220;2023-04-25T16:55:26;98498.59;;;28.57;19.41
48874;BME280;66155;46.204;5.220;2023-04-25T17:00:26;98493.56;;;30.82;17.75
48874;BME280;66155;46.204;5.220;2023-04-25T17:05:27;98489.50;;;31.62;17.24
48874;BME280;66155;46.204;5.220;2023-04-25T17:10:28;98495.97;;;32.84;16.76
48874;BME280;66155;46.204;5.220;2023-04-25T17:15:29;98492.25;;;33.74;16.25
48874;BME280;66155;46.204;5.220;2023-04-25T17:20:30;98500.03;;;33.37;16.15
48874;BME280;66155;46.204;5.220;2023-04-25T17:25:31;98504.00;;;31.86;17.02
48874;BME280;66155;46.204;5.220;2023-04-25T17:30:32;98502.72;;;31.20;17.46
48874;BME280;66155;46.204;5.220;2023-04-25T17:35:33;98513.72;;;28.87;18.74
48874;BME280;66155;46.204;5.220;2023-04-25T17:40:33;98507.28;;;26.85;20.48
48874;BME280;66155;46.204;5.220;2023-04-25T17:45:34;98493.31;;;26.26;21.00
48874;BME280;66155;46.204;5.220;2023-04-25T17:50:35;98502.63;;;24.67;22.23
48874;BME280;66155;46.204;5.220;2023-04-25T17:55:35;98510.75;;;23.29;23.78
48874;BME280;66155;46.204;5.220;2023-04-25T18:00:37;98503.72;;;22.05;25.00
48874;BME280;66155;46.204;5.220;2023-04-25T18:05:37;98518.88;;;21.12;25.89
48874;BME280;66155;46.204;5.220;2023-04-25T18:10:38;98520.03;;;20.46;27.36
48874;BME280;66155;46.204;5.220;2023-04-25T18:15:39;98522.47;;;19.95;27.45
48874;BME280;66155;46.204;5.220;2023-04-25T18:20:41;98535.88;;;19.24;28.37
48874;BME280;66155;46.204;5.220;2023-04-25T18:25:41;98534.28;;;18.74;29.00
48874;BME280;66155;46.204;5.220;2023-04-25T18:30:42;98529.63;;;18.17;29.72
48874;BME280;66155;46.204;5.220;2023-04-25T18:35:43;98534.56;;;17.59;30.89
48874;BME280;66155;46.204;5.220;2023-04-25T18:40:44;98551.09;;;17.09;31.60
48874;BME280;66155;46.204;5.220;2023-04-25T18:45:44;98553.56;;;16.73;32.37
48874;BME280;66155;46.204;5.220;2023-04-25T18:50:44;98564.19;;;16.35;33.15
48874;BME280;66155;46.204;5.220;2023-04-25T18:55:45;98568.75;;;16.10;33.22
48874;BME280;66155;46.204;5.220;2023-04-25T19:00:45;98580.19;;;15.82;34.13
48874;BME280;66155;46.204;5.220;2023-04-25T19:05:46;98582.59;;;15.54;34.52
48874;BME280;66155;46.204;5.220;2023-04-25T19:10:48;98589.66;;;15.34;35.08
48874;BME280;66155;46.204;5.220;2023-04-25T19:15:49;98594.78;;;15.20;35.24
48874;BME280;66155;46.204;5.220;2023-04-25T19:20:50;98603.59;;;15.06;36.35
48874;BME280;66155;46.204;5.220;2023-04-25T19:25:51;98601.88;;;14.96;36.47
48874;BME280;66155;46.204;5.220;2023-04-25T19:30:52;98603.78;;;14.85;36.63
48874;BME280;66155;46.204;5.220;2023-04-25T19:35:53;98609.63;;;14.77;36.82
48874;BME280;66155;46.204;5.220;2023-04-25T19:40:53;98605.09;;;14.53;37.70
48874;BME280;66155;46.204;5.220;2023-04-25T19:45:54;98609.72;;;14.27;38.88
48874;BME280;66155;46.204;5.220;2023-04-25T19:50:54;98624.44;;;14.18;38.95
48874;BME280;66155;46.204;5.220;2023-04-25T19:55:55;98620.34;;;14.01;39.13
48874;BME280;66155;46.204;5.220;2023-04-25T20:00:55;98619.03;;;13.99;39.62
48874;BME280;66155;46.204;5.220;2023-04-25T20:05:59;98618.06;;;13.90;38.91
48874;BME280;66155;46.204;5.220;2023-04-25T20:10:59;98611.75;;;13.85;39.56
48874;BME280;66155;46.204;5.220;2023-04-25T20:16:00;98615.97;;;13.81;40.38
48874;BME280;66155;46.204;5.220;2023-04-25T20:21:01;98622.28;;;13.80;40.08
48874;BME280;66155;46.204;5.220;2023-04-25T20:26:01;98623.06;;;13.81;40.33
48874;BME280;66155;46.204;5.220;2023-04-25T20:31:02;98619.69;;;13.75;40.67
48874;BME280;66155;46.204;5.220;2023-04-25T20:36:03;98622.31;;;13.75;41.04
48874;BME280;66155;46.204;5.220;2023-04-25T20:41:04;98613.91;;;13.73;41.61
48874;BME280;66155;46.204;5.220;2023-04-25T20:46:05;98619.97;;;13.68;41.62
48874;BME280;66155;46.204;5.220;2023-04-25T20:51:05;98619.25;;;13.53;42.06
48874;BME280;66155;46.204;5.220;2023-04-25T20:56:06;98613.78;;;13.34;42.57
48874;BME280;66155;46.204;5.220;2023-04-25T21:01:07;98625.56;;;13.16;43.36
48874;BME280;66155;46.204;5.220;2023-04-25T21:06:08;98624.28;;;13.03;43.03
48874;BME280;66155;46.204;5.220;2023-04-25T21:11:08;98623.28;;;12.93;43.67
48874;BME280;66155;46.204;5.220;2023-04-25T21:16:09;98618.28;;;12.82;43.66
48874;BME280;66155;46.204;5.220;2023-04-25T21:21:09;98619.34;;;12.81;43.84
48874;BME280;66155;46.204;5.220;2023-04-25T21:26:10;98623.00;;;12.85;43.85
48874;BME280;66155;46.204;5.220;2023-04-25T21:31:10;98624.56;;;12.91;43.58
48874;BME280;66155;46.204;5.220;2023-04-25T21:36:10;98617.78;;;12.85;43.87
48874;BME280;66155;46.204;5.220;2023-04-25T21:41:11;98618.81;;;12.84;43.71
48874;BME280;66155;46.204;5.220;2023-04-25T21:46:11;98626.91;;;12.77;44.76
48874;BME280;66155;46.204;5.220;2023-04-25T21:51:12;98620.13;;;12.61;45.31
48874;BME280;66155;46.204;5.220;2023-04-25T21:56:12;98611.47;;;12.45;45.61
48874;BME280;66155;46.204;5.220;2023-04-25T22:01:13;98615.16;;;12.39;45.91
48874;BME280;66155;46.204;5.220;2023-04-25T22:06:14;98613.06;;;12.41;45.88
48874;BME280;66155;46.204;5.220;2023-04-25T22:11:15;98616.44;;;12.31;46.37
48874;BME280;66155;46.204;5.220;2023-04-25T22:16:16;98603.59;;;12.09;46.83
48874;BME280;66155;46.204;5.220;2023-04-25T22:21:17;98610.88;;;11.96;47.96
48874;BME280;66155;46.204;5.220;2023-04-25T22:26:17;98616.56;;;11.83;47.99
48874;BME280;66155;46.204;5.220;2023-04-25T22:31:18;98613.97;;;11.83;48.14
48874;BME280;66155;46.204;5.220;2023-04-25T22:36:18;98624.59;;;11.71;48.07
48874;BME280;66155;46.204;5.220;2023-04-25T22:41:19;98618.81;;;11.59;49.05
48874;BME280;66155;46.204;5.220;2023-04-25T22:46:20;98627.34;;;11.44;49.23
48874;BME280;66155;46.204;5.220;2023-04-25T22:51:20;98631.91;;;11.21;50.99
48874;BME280;66155;46.204;5.220;2023-04-25T22:56:21;98629.19;;;11.06;50.65
48874;BME280;66155;46.204;5.220;2023-04-25T23:01:25;98640.06;;;10.93;51.11
48874;BME280;66155;46.204;5.220;2023-04-25T23:06:26;98640.75;;;10.83;52.27
48874;BME280;66155;46.204;5.220;2023-04-25T23:11:27;98645.59;;;10.69;52.36
48874;BME280;66155;46.204;5.220;2023-04-25T23:16:28;98642.44;;;10.67;51.91
48874;BME280;66155;46.204;5.220;2023-04-25T23:21:28;98647.75;;;10.77;52.09
48874;BME280;66155;46.204;5.220;2023-04-25T23:26:29;98654.94;;;10.65;52.92
48874;BME280;66155;46.204;5.220;2023-04-25T23:31:30;98661.34;;;10.52;53.09
48874;BME280;66155;46.204;5.220;2023-04-25T23:36:30;98658.28;;;10.33;53.96
48874;BME280;66155;46.204;5.220;2023-04-25T23:41:30;98657.38;;;10.22;54.11
48874;BME280;66155;46.204;5.220;2023-04-25T23:46:31;98666.47;;;10.20;54.69
48874;BME280;66155;46.204;5.220;2023-04-25T23:51:31;98665.81;;;10.07;56.01
48874;BME280;66155;46.204;5.220;2023-04-25T23:56:32;98677.06;;;9.91;56.51
